createdAt,value
2022-12-02T00:01:29.334Z,86.45
2022-12-02T00:03:57.411Z,86.43
2022-12-02T00:06:33.463Z,86.40
2022-12-02T00:09:32.375Z,86.57
2022-12-02T00:12:13.039Z,86.57
2022-12-02T00:14:41.069Z,86.78
2022-12-02T00:17:08.966Z,86.92
2022-12-02T00:19:36.878Z,87.00
2022-12-02T00:22:04.819Z,87.02
2022-12-02T00:24:32.738Z,87.03
2022-12-02T00:27:00.647Z,87.03
2022-12-02T00:29:29.594Z,87.19
2022-12-02T00:31:57.535Z,87.26
2022-12-02T00:34:25.582Z,87.15
2022-12-02T00:36:53.600Z,87.11
2022-12-02T00:39:21.586Z,87.18
2022-12-02T00:41:49.522Z,87.27
2022-12-02T00:44:37.177Z,87.57
2022-12-02T00:47:05.149Z,87.72
2022-12-02T00:49:33.118Z,88.12
2022-12-02T00:52:01.074Z,88.42
2022-12-02T00:54:29.027Z,88.56
2022-12-02T00:56:57.012Z,88.46
2022-12-02T00:59:24.882Z,88.12
2022-12-02T01:01:53.613Z,88.20
2022-12-02T01:04:21.594Z,88.26
2022-12-02T01:06:49.486Z,88.14
2022-12-02T01:09:17.515Z,88.10
2022-12-02T01:11:45.443Z,88.40
2022-12-02T01:14:13.383Z,88.71
2022-12-02T01:16:41.897Z,88.39
2022-12-02T01:19:10.014Z,88.08
2022-12-02T01:21:38.802Z,88.09
2022-12-02T01:24:07.550Z,88.41
2022-12-02T01:26:35.459Z,88.64
2022-12-02T01:29:03.995Z,88.80
2022-12-02T01:31:32.206Z,88.86
2022-12-02T01:34:01.308Z,88.85
2022-12-02T01:36:29.178Z,88.92
2022-12-02T01:38:57.083Z,89.08
2022-12-02T01:41:25.313Z,89.07
2022-12-02T01:43:53.561Z,89.20
2022-12-02T01:46:21.935Z,89.54
2022-12-02T01:48:50.352Z,89.49
2022-12-02T01:51:18.650Z,89.64
2022-12-02T01:53:47.656Z,89.91
2022-12-02T01:56:15.598Z,89.94
2022-12-02T01:58:43.627Z,90.04
2022-12-02T02:01:29.846Z,90.26
2022-12-02T02:03:59.228Z,90.33
2022-12-02T02:06:30.005Z,90.29
2022-12-02T02:08:58.624Z,90.55
2022-12-02T02:11:27.228Z,90.79
2022-12-02T02:13:57.640Z,90.96
2022-12-02T02:16:25.779Z,91.05
2022-12-02T02:18:53.725Z,91.08
2022-12-02T02:21:36.408Z,91.25
2022-12-02T02:24:04.584Z,91.28
2022-12-02T02:26:34.564Z,91.43
2022-12-02T02:29:02.603Z,91.45
2022-12-02T02:31:31.469Z,91.36
2022-12-02T02:34:00.695Z,91.40
2022-12-02T02:36:28.993Z,91.38
2022-12-02T02:38:57.490Z,91.46
2022-12-02T02:41:27.358Z,91.55
2022-12-02T02:43:55.696Z,91.66
2022-12-02T02:46:24.068Z,91.80
2022-12-02T02:48:53.984Z,91.95
2022-12-02T02:51:22.166Z,91.83
2022-12-02T02:53:51.654Z,92.05
2022-12-02T02:56:19.886Z,92.24
2022-12-02T02:58:48.214Z,92.40
2022-12-02T03:02:10.728Z,92.56
2022-12-02T03:04:44.008Z,92.77
2022-12-02T03:07:13.166Z,92.96
2022-12-02T03:09:41.576Z,93.05
2022-12-02T03:12:10.068Z,93.16
2022-12-02T03:14:38.348Z,93.22
2022-12-02T03:17:07.047Z,93.26
2022-12-02T03:19:36.076Z,93.52
2022-12-02T03:22:04.744Z,93.32
2022-12-02T03:24:33.685Z,93.37
2022-12-02T03:27:02.647Z,93.40
2022-12-02T03:29:31.190Z,93.60
2022-12-02T03:32:00.723Z,93.61
2022-12-02T03:34:30.231Z,93.72
2022-12-02T03:36:59.734Z,93.75
2022-12-02T03:39:27.807Z,93.73
2022-12-02T03:41:56.312Z,93.75
2022-12-02T03:44:24.250Z,93.88
2022-12-02T03:46:52.372Z,94.07
2022-12-02T03:49:20.682Z,94.13
2022-12-02T03:51:49.182Z,94.44
2022-12-02T04:53:54.181Z,96.70
2022-12-02T04:56:22.113Z,96.71
2022-12-02T04:58:50.024Z,96.56
2022-12-02T05:01:17.942Z,96.41
2022-12-02T05:03:45.796Z,96.38
2022-12-02T05:06:13.928Z,96.29
2022-12-02T05:08:42.034Z,96.26
2022-12-02T05:11:10.013Z,96.02
2022-12-02T05:13:37.939Z,95.87
2022-12-02T05:16:06.390Z,95.95
2022-12-02T05:18:34.391Z,95.69
2022-12-02T05:21:02.393Z,95.77
2022-12-02T05:23:30.376Z,95.64
2022-12-02T05:25:58.350Z,95.40
2022-12-02T05:28:26.330Z,95.26
2022-12-02T05:30:54.373Z,95.17
2022-12-02T05:33:22.288Z,95.26
2022-12-02T05:35:50.224Z,95.35
2022-12-02T05:38:18.153Z,95.39
2022-12-02T05:40:46.079Z,95.28
2022-12-02T05:43:18.872Z,95.22
2022-12-02T05:45:47.371Z,95.34
2022-12-02T05:48:18.186Z,95.18
2022-12-02T05:50:47.003Z,95.18
2022-12-02T05:53:27.320Z,95.35
2022-12-02T05:55:57.427Z,95.75
2022-12-02T05:58:26.166Z,95.87
2022-12-02T06:00:58.976Z,96.02
2022-12-02T06:03:27.306Z,96.31
2022-12-02T06:05:55.551Z,96.32
2022-12-02T06:08:27.677Z,96.33
2022-12-02T06:11:03.795Z,96.42
2022-12-02T06:13:35.590Z,96.42
2022-12-02T06:16:07.226Z,96.47
2022-12-02T06:18:36.563Z,96.47
2022-12-02T06:21:13.347Z,96.50
2022-12-02T06:23:45.190Z,96.65
2022-12-02T06:26:18.444Z,96.53
2022-12-02T06:28:51.218Z,96.69
2022-12-02T06:31:31.457Z,96.44
2022-12-02T06:34:05.720Z,96.60
2022-12-02T06:36:35.088Z,96.62
2022-12-02T06:39:20.281Z,96.74
2022-12-02T06:41:49.139Z,97.15
2022-12-02T06:44:39.844Z,97.35
2022-12-02T06:47:32.964Z,97.34
2022-12-02T06:50:07.055Z,97.54
2022-12-02T06:52:42.691Z,97.62
2022-12-02T06:55:35.670Z,97.76
2022-12-02T06:58:34.797Z,97.83
2022-12-02T07:01:13.067Z,97.78
2022-12-02T07:04:02.661Z,97.83
2022-12-02T07:06:32.500Z,97.65
2022-12-02T07:09:17.654Z,97.59
2022-12-02T07:11:51.968Z,97.72
2022-12-02T07:14:31.661Z,97.91
2022-12-02T07:17:13.846Z,98.05
2022-12-02T07:19:45.898Z,97.92
2022-12-02T07:22:20.767Z,97.89
2022-12-02T07:24:56.038Z,97.93
2022-12-02T07:27:31.796Z,98.17
2022-12-02T07:30:02.008Z,98.27
2022-12-02T07:32:30.004Z,98.06
2022-12-02T07:34:58.169Z,97.88
2022-12-02T07:37:26.159Z,97.65
2022-12-02T07:39:54.167Z,97.50
2022-12-02T07:42:22.076Z,97.75
2022-12-02T07:44:50.415Z,98.07
2022-12-02T07:47:18.529Z,97.91
2022-12-02T07:49:46.452Z,97.41
2022-12-02T07:52:14.515Z,97.19
2022-12-02T07:54:42.470Z,97.26
2022-12-02T07:57:10.426Z,97.34
2022-12-02T07:59:38.348Z,97.43
2022-12-02T08:02:06.343Z,97.37
2022-12-02T08:04:34.421Z,97.46
2022-12-02T08:07:02.423Z,97.58
2022-12-02T08:09:30.393Z,97.72
2022-12-02T08:11:58.566Z,97.49
2022-12-02T08:14:26.520Z,97.52
2022-12-02T08:16:54.588Z,97.48
2022-12-02T08:19:23.295Z,97.77
2022-12-02T08:21:53.014Z,97.85
2022-12-02T08:24:20.983Z,97.84
2022-12-02T08:26:48.966Z,97.92
2022-12-02T08:29:16.846Z,97.94
2022-12-02T08:31:44.742Z,97.94
2022-12-02T08:34:12.717Z,97.96
2022-12-02T08:36:40.647Z,97.85
2022-12-02T08:39:08.592Z,97.85
2022-12-02T08:41:38.017Z,97.98
2022-12-02T08:44:07.032Z,97.89
2022-12-02T08:46:36.707Z,97.91
2022-12-02T08:49:06.469Z,97.86
2022-12-02T08:51:35.849Z,97.63
2022-12-02T08:54:03.977Z,97.35
2022-12-02T08:56:31.979Z,97.28
2022-12-02T08:59:00.151Z,97.19
2022-12-02T09:01:28.559Z,97.16
2022-12-02T09:03:56.696Z,97.24
2022-12-02T09:06:24.787Z,97.23
2022-12-02T09:08:52.794Z,97.03
2022-12-02T09:11:20.793Z,96.80
2022-12-02T09:13:48.760Z,96.94
2022-12-02T09:16:16.784Z,96.64
2022-12-02T09:18:44.813Z,96.35
2022-12-02T09:21:12.812Z,96.48
2022-12-02T09:23:40.820Z,95.79
2022-12-02T09:26:09.782Z,95.55
2022-12-02T09:28:37.622Z,95.05
2022-12-02T09:31:05.537Z,95.51
2022-12-02T09:33:34.086Z,95.16
2022-12-02T09:36:02.248Z,94.47
2022-12-02T09:38:32.276Z,94.49
2022-12-02T09:41:01.490Z,94.93
2022-12-02T09:43:30.505Z,94.64
2022-12-02T09:46:00.226Z,94.31
2022-12-02T09:48:29.350Z,93.62
2022-12-02T09:50:59.834Z,92.89
2022-12-02T09:53:33.364Z,93.29
2022-12-02T09:56:01.831Z,93.61
2022-12-02T09:58:29.857Z,93.22
2022-12-02T10:00:57.824Z,92.85
2022-12-02T10:03:28.164Z,92.28
2022-12-02T10:05:56.786Z,92.01
2022-12-02T10:08:28.323Z,91.57
2022-12-02T10:10:59.595Z,91.63
2022-12-02T10:13:28.097Z,91.61
2022-12-02T10:15:56.250Z,91.57
2022-12-02T10:18:30.873Z,91.50
2022-12-02T10:20:59.043Z,91.43
2022-12-02T10:23:29.113Z,91.42
2022-12-02T10:26:14.248Z,91.45
2022-12-02T10:28:43.065Z,91.62
2022-12-02T10:31:25.257Z,91.34
2022-12-02T10:33:57.215Z,91.33
2022-12-02T10:36:42.611Z,91.61
2022-12-02T10:39:37.342Z,91.51
2022-12-02T10:42:08.921Z,91.27
2022-12-02T10:44:39.125Z,91.16
2022-12-02T10:47:21.255Z,91.02
2022-12-02T10:49:57.931Z,90.84
2022-12-02T10:52:36.403Z,91.10
2022-12-02T10:55:05.961Z,90.94
2022-12-02T10:57:35.051Z,90.79
2022-12-02T11:00:14.436Z,90.38
2022-12-02T11:02:57.839Z,90.11
2022-12-02T11:05:29.458Z,89.87
2022-12-02T11:08:04.580Z,90.33
2022-12-02T11:11:10.224Z,90.48
2022-12-02T11:13:53.597Z,90.63
2022-12-02T11:16:27.753Z,90.90
2022-12-02T11:19:32.901Z,90.62
2022-12-02T11:22:01.515Z,90.36
2022-12-02T11:24:32.546Z,90.61
2022-12-02T11:27:03.457Z,90.62
2022-12-02T11:29:43.142Z,90.48
2022-12-02T11:32:26.386Z,90.66
2022-12-02T11:37:48.352Z,90.39
2022-12-02T11:40:19.265Z,90.14
2022-12-02T11:42:47.123Z,90.17
2022-12-02T11:45:17.992Z,90.29
2022-12-02T11:48:00.405Z,90.18
2022-12-02T11:50:38.342Z,90.16
2022-12-02T11:53:23.329Z,89.35
2022-12-02T11:55:53.413Z,89.45
2022-12-02T11:58:32.285Z,89.27
2022-12-02T12:01:12.647Z,88.93
2022-12-02T12:03:42.982Z,88.91
2022-12-02T12:06:11.992Z,88.91
2022-12-02T12:08:44.736Z,88.60
2022-12-02T12:11:22.983Z,88.63
2022-12-02T12:14:07.525Z,88.18
2022-12-02T12:16:39.230Z,88.35
2022-12-02T12:19:13.231Z,88.59
2022-12-02T12:21:47.299Z,88.43
2022-12-02T12:24:21.607Z,88.46
2022-12-02T12:26:52.012Z,88.53
2022-12-02T12:29:21.800Z,88.40
2022-12-02T12:31:50.124Z,88.24
2022-12-02T12:34:18.129Z,88.40
2022-12-02T12:36:47.003Z,88.53
2022-12-02T12:39:16.594Z,88.44
2022-12-02T12:41:59.844Z,88.49
2022-12-02T12:44:32.433Z,88.63
2022-12-02T12:47:04.386Z,88.52
2022-12-02T12:49:34.364Z,88.55
2022-12-02T12:52:02.652Z,88.55
2022-12-02T12:54:30.893Z,88.83
2022-12-02T12:56:58.944Z,88.88
2022-12-02T12:59:26.884Z,88.81
2022-12-02T13:01:54.876Z,89.12
2022-12-02T13:04:23.007Z,89.20
2022-12-02T13:06:50.990Z,89.24
2022-12-02T13:09:18.976Z,89.36
2022-12-02T13:11:47.340Z,89.37
2022-12-02T13:14:15.363Z,89.45
2022-12-02T13:16:43.611Z,89.58
2022-12-02T13:19:11.953Z,89.61
2022-12-02T13:21:40.175Z,89.72
2022-12-02T13:24:09.122Z,89.83
2022-12-02T13:26:37.102Z,89.84
2022-12-02T13:29:05.000Z,89.84
2022-12-02T13:31:32.991Z,90.02
2022-12-02T13:34:01.004Z,90.06
2022-12-02T13:36:28.949Z,90.10
2022-12-02T13:39:01.088Z,90.17
2022-12-02T13:41:32.450Z,90.07
2022-12-02T13:44:00.349Z,90.11
2022-12-02T13:46:29.008Z,90.23
2022-12-02T13:48:56.863Z,90.31
2022-12-02T13:51:24.995Z,90.30
2022-12-02T13:53:57.319Z,90.36
2022-12-02T13:56:27.546Z,90.37
2022-12-02T13:58:55.466Z,90.32
2022-12-02T14:01:23.462Z,90.49
2022-12-02T14:03:51.740Z,90.59
2022-12-02T14:06:19.799Z,90.54
2022-12-02T14:08:47.740Z,90.52
2022-12-02T14:11:15.758Z,90.50
2022-12-02T14:13:44.822Z,90.60
2022-12-02T14:16:12.882Z,90.72
2022-12-02T14:18:40.846Z,90.71
2022-12-02T14:21:08.935Z,90.81
2022-12-02T14:23:36.876Z,90.62
2022-12-02T14:26:04.888Z,90.46
2022-12-02T14:28:32.840Z,90.40
2022-12-02T14:31:00.763Z,90.44
2022-12-02T14:33:54.726Z,90.62
2022-12-02T14:36:18.130Z,90.86
2022-12-02T14:38:46.094Z,90.84
2022-12-02T14:41:13.975Z,90.67
2022-12-02T14:43:41.952Z,90.58
2022-12-02T14:46:10.477Z,90.72
2022-12-02T14:48:38.450Z,90.68
2022-12-02T14:51:06.452Z,90.74
2022-12-02T14:53:34.522Z,90.73
2022-12-02T14:56:02.418Z,90.69
2022-12-02T14:58:30.409Z,90.74
2022-12-02T15:00:58.239Z,90.80
2022-12-02T15:03:26.208Z,90.84
2022-12-02T15:05:54.170Z,90.92
2022-12-02T15:08:22.066Z,91.07
2022-12-02T15:10:51.834Z,91.12
2022-12-02T15:13:19.812Z,91.33
2022-12-02T15:15:54.580Z,91.27
2022-12-02T15:18:25.206Z,91.19
2022-12-02T15:20:53.141Z,91.31
2022-12-02T15:23:21.222Z,91.39
2022-12-02T15:25:49.110Z,91.45
2022-12-02T15:28:17.153Z,91.46
2022-12-02T15:30:45.115Z,91.45
2022-12-02T15:33:13.075Z,91.44
2022-12-02T15:35:41.027Z,91.52
2022-12-02T15:38:09.002Z,91.68
2022-12-02T15:40:39.179Z,91.73
2022-12-02T15:43:07.145Z,91.86
2022-12-02T15:45:35.134Z,91.92
2022-12-02T15:48:03.181Z,91.87
2022-12-02T15:50:31.041Z,91.96
2022-12-02T15:52:58.965Z,92.02
2022-12-02T15:55:27.048Z,92.04
2022-12-02T15:57:55.033Z,92.04
2022-12-02T16:00:23.105Z,92.19
2022-12-02T16:02:55.967Z,92.34
2022-12-02T16:05:24.850Z,92.46
2022-12-02T16:07:52.898Z,92.62
2022-12-02T16:10:21.019Z,92.76
2022-12-02T16:12:50.033Z,92.86
2022-12-02T16:15:18.114Z,93.12
2022-12-02T16:17:47.021Z,93.09
2022-12-02T16:20:15.041Z,93.13
2022-12-02T16:22:42.978Z,93.28
2022-12-02T16:25:11.006Z,93.35
2022-12-02T16:27:39.068Z,93.30
2022-12-02T16:30:07.796Z,93.28
2022-12-02T16:32:35.818Z,93.41
2022-12-02T16:35:03.900Z,93.39
2022-12-02T16:37:31.815Z,93.28
2022-12-02T16:39:59.892Z,93.00
2022-12-02T16:42:28.024Z,92.84
2022-12-02T16:44:56.342Z,93.05
2022-12-02T16:47:24.481Z,93.00
2022-12-02T16:49:52.616Z,93.11
2022-12-02T16:52:20.595Z,93.14
2022-12-02T16:54:48.548Z,93.14
2022-12-02T16:57:16.446Z,93.05
2022-12-02T16:59:44.368Z,92.65
2022-12-02T17:02:12.399Z,92.36
2022-12-02T17:04:41.252Z,92.22
2022-12-02T17:07:09.190Z,92.18
2022-12-02T17:09:37.349Z,92.09
2022-12-02T17:12:05.903Z,92.11
2022-12-02T17:14:33.895Z,92.01
2022-12-02T17:17:18.237Z,91.99
2022-12-02T17:19:52.010Z,92.06
2022-12-02T17:22:19.954Z,91.99
2022-12-02T17:24:47.801Z,91.92
2022-12-02T17:27:15.770Z,91.89
2022-12-02T17:29:43.819Z,92.04
2022-12-02T17:32:11.867Z,92.08
2022-12-02T17:34:39.977Z,92.12
2022-12-02T17:37:08.046Z,92.11
2022-12-02T17:39:36.193Z,92.12
2022-12-02T17:42:04.323Z,92.13
2022-12-02T17:44:32.189Z,92.23
2022-12-02T17:47:00.164Z,92.25
2022-12-02T17:49:34.099Z,92.38
2022-12-02T17:52:19.371Z,92.50
2022-12-02T17:54:49.333Z,92.49
2022-12-02T17:57:17.677Z,92.69
2022-12-02T17:59:45.660Z,92.68
2022-12-02T18:02:14.072Z,92.87
2022-12-02T18:04:44.740Z,93.02
2022-12-02T18:07:13.229Z,93.08
2022-12-02T18:09:41.494Z,93.07
2022-12-02T18:12:10.317Z,92.95
2022-12-02T18:14:38.312Z,93.09
2022-12-02T18:17:07.339Z,93.19
2022-12-02T18:19:35.381Z,93.47
2022-12-02T18:22:04.119Z,93.68
2022-12-02T18:24:32.026Z,93.58
2022-12-02T18:26:59.915Z,93.94
2022-12-02T18:29:27.862Z,94.14
2022-12-02T18:31:55.921Z,94.12
2022-12-02T18:34:24.091Z,94.24
2022-12-02T18:36:52.179Z,94.54
2022-12-02T18:39:20.165Z,94.76
2022-12-02T18:41:48.212Z,94.70
2022-12-02T18:44:16.144Z,94.83
2022-12-02T18:46:44.133Z,94.81
2022-12-02T18:49:12.195Z,94.61
2022-12-02T18:51:40.073Z,94.19
2022-12-02T18:54:08.063Z,94.13
2022-12-02T18:56:36.114Z,94.47
2022-12-02T18:59:04.707Z,94.53
2022-12-02T19:01:41.282Z,94.51
2022-12-02T19:04:09.938Z,94.32
2022-12-02T19:06:38.472Z,94.42
2022-12-02T19:09:06.683Z,94.07
2022-12-02T19:11:34.568Z,93.54
2022-12-02T19:14:02.648Z,93.22
2022-12-02T19:16:30.876Z,93.20
2022-12-02T19:18:58.950Z,93.12
2022-12-02T19:21:27.021Z,93.09
2022-12-02T19:23:54.982Z,93.11
2022-12-02T19:26:23.323Z,93.15
2022-12-02T19:28:51.707Z,93.23
2022-12-02T19:31:19.799Z,93.34
2022-12-02T19:33:47.796Z,93.51
2022-12-02T19:36:15.800Z,93.53
2022-12-02T19:38:43.652Z,93.56
2022-12-02T19:41:11.604Z,93.73
2022-12-02T19:43:39.541Z,93.93
2022-12-02T19:46:07.560Z,94.11
2022-12-02T19:48:35.612Z,94.13
2022-12-02T19:51:03.675Z,94.09
2022-12-02T19:53:31.712Z,94.11
2022-12-02T19:55:59.798Z,94.22
2022-12-02T19:58:27.718Z,94.24
2022-12-02T20:00:55.660Z,94.25
2022-12-02T20:03:23.772Z,94.17
2022-12-02T20:05:51.746Z,94.24
2022-12-02T20:08:19.818Z,94.36
2022-12-02T20:10:47.911Z,94.37
2022-12-02T20:13:17.900Z,94.26
2022-12-02T20:15:45.894Z,94.16
2022-12-02T20:18:13.862Z,94.31
2022-12-02T20:20:41.910Z,94.37
2022-12-02T20:23:10.181Z,94.29
2022-12-02T20:25:38.279Z,94.52
2022-12-02T20:28:06.210Z,94.68
2022-12-02T20:30:34.079Z,94.91
2022-12-02T20:33:02.156Z,95.17
2022-12-02T20:35:30.232Z,95.26
2022-12-02T20:37:58.303Z,95.30
2022-12-02T20:40:26.330Z,95.29
2022-12-02T20:42:54.285Z,95.51
2022-12-02T20:45:23.132Z,95.76
2022-12-02T20:47:51.406Z,95.76
2022-12-02T20:50:19.509Z,95.80
2022-12-02T20:52:53.431Z,95.86
2022-12-02T20:55:22.083Z,95.99
2022-12-02T20:57:50.057Z,95.99
2022-12-02T21:00:19.465Z,96.04
2022-12-02T21:02:47.690Z,95.93
2022-12-02T21:05:16.061Z,95.77
2022-12-02T21:07:44.305Z,95.87
2022-12-02T21:10:12.427Z,95.62
2022-12-02T21:12:40.430Z,95.56
2022-12-02T21:15:08.803Z,95.47
2022-12-02T21:17:36.856Z,95.08
2022-12-02T21:20:05.803Z,94.63
2022-12-02T21:22:33.724Z,94.57
2022-12-02T21:25:01.699Z,94.69
2022-12-02T21:27:29.708Z,94.60
2022-12-02T21:29:57.856Z,94.46
2022-12-02T21:32:25.772Z,94.57
2022-12-02T21:34:53.903Z,94.56
2022-12-02T21:37:22.012Z,94.50
2022-12-02T21:39:49.911Z,94.24
2022-12-02T21:42:17.862Z,94.11
2022-12-02T21:44:45.845Z,94.18
2022-12-02T21:47:13.859Z,94.21
2022-12-02T21:49:47.446Z,94.35
2022-12-02T21:52:17.559Z,94.34
2022-12-02T21:54:45.557Z,94.27
2022-12-02T21:57:13.609Z,94.28
2022-12-02T21:59:42.209Z,94.24
2022-12-02T22:02:14.138Z,94.15
2022-12-02T22:04:44.662Z,94.00
2022-12-02T22:07:31.290Z,94.09
2022-12-02T22:09:59.331Z,94.20
2022-12-02T22:12:27.313Z,94.26
2022-12-02T22:14:55.517Z,94.36
2022-12-02T22:17:23.536Z,94.37
2022-12-02T22:19:51.470Z,94.33
2022-12-02T22:22:19.321Z,94.48
2022-12-02T22:24:47.271Z,94.57
2022-12-02T22:27:15.158Z,94.57
2022-12-02T22:29:43.075Z,94.50
2022-12-02T22:32:11.092Z,94.59
2022-12-02T22:34:39.038Z,94.51
2022-12-02T22:37:06.943Z,94.52
2022-12-02T22:39:34.890Z,94.51
2022-12-02T22:42:02.829Z,94.70
2022-12-02T22:44:30.796Z,95.03
2022-12-02T22:46:58.733Z,95.17
2022-12-02T22:49:26.661Z,95.28
2022-12-02T22:51:54.572Z,95.32
2022-12-02T22:54:22.587Z,95.44
2022-12-02T22:56:50.505Z,95.34
2022-12-02T22:59:18.403Z,95.50
2022-12-02T23:01:46.470Z,95.78
2022-12-02T23:04:14.519Z,95.97
2022-12-02T23:06:42.667Z,96.02
2022-12-02T23:09:10.906Z,96.11
2022-12-02T23:11:38.757Z,96.12
2022-12-02T23:14:06.931Z,96.03
2022-12-02T23:16:34.918Z,95.85
2022-12-02T23:19:02.995Z,95.48
2022-12-02T23:21:31.224Z,95.63
2022-12-02T23:23:59.196Z,95.66
2022-12-02T23:26:27.203Z,95.68
2022-12-02T23:28:55.077Z,95.53
2022-12-02T23:31:23.062Z,95.52
2022-12-02T23:33:50.984Z,95.56
2022-12-02T23:36:19.979Z,95.47
2022-12-02T23:38:47.974Z,95.30
2022-12-02T23:41:15.931Z,95.15
2022-12-02T23:43:43.871Z,95.21
2022-12-02T23:46:11.882Z,95.14
2022-12-02T23:48:39.930Z,95.22
2022-12-02T23:51:07.904Z,95.22
2022-12-02T23:53:35.903Z,95.06
2022-12-02T23:56:03.967Z,94.77
2022-12-02T23:58:31.939Z,94.88
